sensor_id;sensor_type;location;lat;lon;timestamp;temperature;humidity
47310;DHT22;33046;52.270;6.832;2023-05-31T00:00:14;14.70;93.00
47310;DHT22;33046;52.270;6.832;2023-05-31T00:02:21;14.80;93.00
47310;DHT22;33046;52.270;6.832;2023-05-31T00:04:28;14.80;93.00
47310;DHT22;33046;52.270;6.832;2023-05-31T00:06:35;14.70;92.90
47310;DHT22;33046;52.270;6.832;2023-05-31T00:08:42;14.70;93.10
47310;DHT22;33046;52.270;6.832;2023-05-31T00:10:49;14.70;93.20
47310;DHT22;33046;52.270;6.832;2023-05-31T00:12:57;14.70;93.40
47310;DHT22;33046;52.270;6.832;2023-05-31T00:15:05;14.70;93.50
47310;DHT22;33046;52.270;6.832;2023-05-31T00:17:12;14.60;93.60
47310;DHT22;33046;52.270;6.832;2023-05-31T00:19:29;14.60;93.60
47310;DHT22;33046;52.270;6.832;2023-05-31T00:21:36;14.60;93.60
47310;DHT22;33046;52.270;6.832;2023-05-31T00:23:43;14.60;93.70
47310;DHT22;33046;52.270;6.832;2023-05-31T00:25:49;14.60;93.80
47310;DHT22;33046;52.270;6.832;2023-05-31T00:27:58;14.60;93.90
47310;DHT22;33046;52.270;6.832;2023-05-31T00:30:05;14.50;94.00
47310;DHT22;33046;52.270;6.832;2023-05-31T00:32:12;14.50;94.00
47310;DHT22;33046;52.270;6.832;2023-05-31T00:34:19;14.50;94.00
47310;DHT22;33046;52.270;6.832;2023-05-31T00:36:26;14.50;94.10
47310;DHT22;33046;52.270;6.832;2023-05-31T00:38:34;14.40;94.10
47310;DHT22;33046;52.270;6.832;2023-05-31T00:40:41;14.40;94.20
47310;DHT22;33046;52.270;6.832;2023-05-31T00:42:48;14.50;94.40
47310;DHT22;33046;52.270;6.832;2023-05-31T00:44:56;14.40;94.40
47310;DHT22;33046;52.270;6.832;2023-05-31T00:47:03;14.40;94.40
47310;DHT22;33046;52.270;6.832;2023-05-31T00:49:11;14.40;94.50
47310;DHT22;33046;52.270;6.832;2023-05-31T00:51:18;14.30;94.40
47310;DHT22;33046;52.270;6.832;2023-05-31T00:53:25;14.30;94.60
47310;DHT22;33046;52.270;6.832;2023-05-31T00:55:32;14.30;94.70
47310;DHT22;33046;52.270;6.832;2023-05-31T00:57:39;14.30;94.80
47310;DHT22;33046;52.270;6.832;2023-05-31T00:59:46;14.30;95.00
47310;DHT22;33046;52.270;6.832;2023-05-31T01:01:55;14.30;95.00
47310;DHT22;33046;52.270;6.832;2023-05-31T01:04:04;14.30;94.90
47310;DHT22;33046;52.270;6.832;2023-05-31T01:06:12;14.30;95.10
47310;DHT22;33046;52.270;6.832;2023-05-31T01:08:21;14.30;95.10
47310;DHT22;33046;52.270;6.832;2023-05-31T01:10:28;14.20;95.20
47310;DHT22;33046;52.270;6.832;2023-05-31T01:12:44;14.20;95.60
47310;DHT22;33046;52.270;6.832;2023-05-31T01:15:03;14.20;95.50
47310;DHT22;33046;52.270;6.832;2023-05-31T01:17:19;14.20;95.70
47310;DHT22;33046;52.270;6.832;2023-05-31T01:19:36;14.20;95.80
47310;DHT22;33046;52.270;6.832;2023-05-31T01:21:56;14.20;95.70
47310;DHT22;33046;52.270;6.832;2023-05-31T01:24:17;14.20;95.60
47310;DHT22;33046;52.270;6.832;2023-05-31T01:26:35;14.10;95.60
47310;DHT22;33046;52.270;6.832;2023-05-31T01:28:42;14.10;95.60
47310;DHT22;33046;52.270;6.832;2023-05-31T01:30:51;14.10;95.50
47310;DHT22;33046;52.270;6.832;2023-05-31T01:33:00;14.00;95.40
47310;DHT22;33046;52.270;6.832;2023-05-31T01:35:09;14.00;95.90
47310;DHT22;33046;52.270;6.832;2023-05-31T01:37:16;14.00;95.90
47310;DHT22;33046;52.270;6.832;2023-05-31T01:39:23;14.00;96.00
47310;DHT22;33046;52.270;6.832;2023-05-31T01:41:35;14.10;96.40
47310;DHT22;33046;52.270;6.832;2023-05-31T01:43:44;14.00;96.60
47310;DHT22;33046;52.270;6.832;2023-05-31T01:45:51;14.10;97.00
47310;DHT22;33046;52.270;6.832;2023-05-31T01:48:02;14.10;97.00
47310;DHT22;33046;52.270;6.832;2023-05-31T01:50:10;14.00;97.00
47310;DHT22;33046;52.270;6.832;2023-05-31T01:52:19;14.00;96.80
47310;DHT22;33046;52.270;6.832;2023-05-31T01:54:27;14.00;97.00
47310;DHT22;33046;52.270;6.832;2023-05-31T01:56:36;14.00;97.10
47310;DHT22;33046;52.270;6.832;2023-05-31T01:58:44;14.00;97.10
47310;DHT22;33046;52.270;6.832;2023-05-31T02:00:52;14.00;97.20
47310;DHT22;33046;52.270;6.832;2023-05-31T02:02:59;14.00;97.00
47310;DHT22;33046;52.270;6.832;2023-05-31T02:05:09;14.00;97.20
47310;DHT22;33046;52.270;6.832;2023-05-31T02:07:16;14.00;97.70
47310;DHT22;33046;52.270;6.832;2023-05-31T02:09:23;14.00;97.70
47310;DHT22;33046;52.270;6.832;2023-05-31T02:11:30;14.00;97.80
47310;DHT22;33046;52.270;6.832;2023-05-31T02:13:38;14.00;98.00
47310;DHT22;33046;52.270;6.832;2023-05-31T02:15:45;14.00;97.90
47310;DHT22;33046;52.270;6.832;2023-05-31T02:17:52;14.00;98.00
47310;DHT22;33046;52.270;6.832;2023-05-31T02:19:59;14.00;98.00
47310;DHT22;33046;52.270;6.832;2023-05-31T02:22:07;14.00;98.10
47310;DHT22;33046;52.270;6.832;2023-05-31T02:24:14;14.00;98.10
47310;DHT22;33046;52.270;6.832;2023-05-31T02:26:21;14.00;98.10
47310;DHT22;33046;52.270;6.832;2023-05-31T02:28:28;14.00;98.10
47310;DHT22;33046;52.270;6.832;2023-05-31T02:30:36;13.90;98.00
47310;DHT22;33046;52.270;6.832;2023-05-31T02:32:43;13.90;98.00
47310;DHT22;33046;52.270;6.832;2023-05-31T02:34:49;13.90;98.30
47310;DHT22;33046;52.270;6.832;2023-05-31T02:36:59;13.90;98.00
47310;DHT22;33046;52.270;6.832;2023-05-31T02:39:05;13.90;98.00
47310;DHT22;33046;52.270;6.832;2023-05-31T02:41:12;13.80;98.10
47310;DHT22;33046;52.270;6.832;2023-05-31T02:43:19;13.80;98.20
47310;DHT22;33046;52.270;6.832;2023-05-31T02:45:26;13.90;98.10
47310;DHT22;33046;52.270;6.832;2023-05-31T02:47:36;13.80;98.10
47310;DHT22;33046;52.270;6.832;2023-05-31T02:49:43;13.80;98.20
47310;DHT22;33046;52.270;6.832;2023-05-31T02:51:50;13.80;98.40
47310;DHT22;33046;52.270;6.832;2023-05-31T02:54:15;13.80;98.40
47310;DHT22;33046;52.270;6.832;2023-05-31T02:56:24;13.80;98.30
47310;DHT22;33046;52.270;6.832;2023-05-31T02:58:51;13.70;98.20
47310;DHT22;33046;52.270;6.832;2023-05-31T03:01:01;13.70;98.20
47310;DHT22;33046;52.270;6.832;2023-05-31T03:03:11;13.70;98.00
47310;DHT22;33046;52.270;6.832;2023-05-31T03:05:38;13.70;97.90
47310;DHT22;33046;52.270;6.832;2023-05-31T03:07:45;13.70;98.30
47310;DHT22;33046;52.270;6.832;2023-05-31T03:09:52;13.70;98.10
47310;DHT22;33046;52.270;6.832;2023-05-31T03:11:59;13.60;97.80
47310;DHT22;33046;52.270;6.832;2023-05-31T03:14:06;13.60;97.90
47310;DHT22;33046;52.270;6.832;2023-05-31T03:16:24;13.60;97.90
47310;DHT22;33046;52.270;6.832;2023-05-31T03:18:32;13.60;97.90
47310;DHT22;33046;52.270;6.832;2023-05-31T03:20:40;13.50;97.90
47310;DHT22;33046;52.270;6.832;2023-05-31T03:22:47;13.50;98.00
47310;DHT22;33046;52.270;6.832;2023-05-31T03:24:54;13.50;98.00
47310;DHT22;33046;52.270;6.832;2023-05-31T03:27:01;13.50;98.00
47310;DHT22;33046;52.270;6.832;2023-05-31T03:29:08;13.40;97.80
47310;DHT22;33046;52.270;6.832;2023-05-31T03:31:15;13.50;98.00
47310;DHT22;33046;52.270;6.832;2023-05-31T03:33:22;13.50;98.10
47310;DHT22;33046;52.270;6.832;2023-05-31T03:35:31;13.40;98.20
47310;DHT22;33046;52.270;6.832;2023-05-31T03:37:42;13.40;98.20
47310;DHT22;33046;52.270;6.832;2023-05-31T03:39:51;13.40;98.40
47310;DHT22;33046;52.270;6.832;2023-05-31T03:42:10;13.40;98.60
47310;DHT22;33046;52.270;6.832;2023-05-31T03:44:17;13.40;99.10
47310;DHT22;33046;52.270;6.832;2023-05-31T03:46:24;13.40;98.90
47310;DHT22;33046;52.270;6.832;2023-05-31T03:48:32;13.40;99.00
47310;DHT22;33046;52.270;6.832;2023-05-31T03:50:41;13.40;99.20
47310;DHT22;33046;52.270;6.832;2023-05-31T03:52:48;13.40;99.20
47310;DHT22;33046;52.270;6.832;2023-05-31T03:54:55;13.40;99.30
47310;DHT22;33046;52.270;6.832;2023-05-31T03:57:02;13.40;99.40
47310;DHT22;33046;52.270;6.832;2023-05-31T03:59:09;13.40;99.50
47310;DHT22;33046;52.270;6.832;2023-05-31T04:01:16;13.40;99.60
47310;DHT22;33046;52.270;6.832;2023-05-31T04:03:24;13.50;99.70
47310;DHT22;33046;52.270;6.832;2023-05-31T04:05:31;13.50;99.70
47310;DHT22;33046;52.270;6.832;2023-05-31T04:07:40;13.50;99.80
47310;DHT22;33046;52.270;6.832;2023-05-31T04:09:48;13.50;99.80
47310;DHT22;33046;52.270;6.832;2023-05-31T04:11:55;13.50;99.90
47310;DHT22;33046;52.270;6.832;2023-05-31T04:14:01;13.50;99.90
47310;DHT22;33046;52.270;6.832;2023-05-31T04:16:08;13.60;99.90
47310;DHT22;33046;52.270;6.832;2023-05-31T04:18:15;13.60;99.90
47310;DHT22;33046;52.270;6.832;2023-05-31T04:20:22;13.60;99.90
47310;DHT22;33046;52.270;6.832;2023-05-31T04:22:30;13.60;99.90
47310;DHT22;33046;52.270;6.832;2023-05-31T04:24:38;13.70;99.90
47310;DHT22;33046;52.270;6.832;2023-05-31T04:26:45;13.70;99.90
47310;DHT22;33046;52.270;6.832;2023-05-31T04:28:52;13.70;99.90
47310;DHT22;33046;52.270;6.832;2023-05-31T04:31:00;13.70;99.90
47310;DHT22;33046;52.270;6.832;2023-05-31T04:33:09;13.80;99.90
47310;DHT22;33046;52.270;6.832;2023-05-31T04:35:16;13.90;99.90
47310;DHT22;33046;52.270;6.832;2023-05-31T04:37:26;13.90;99.90
47310;DHT22;33046;52.270;6.832;2023-05-31T04:39:33;13.90;99.90
47310;DHT22;33046;52.270;6.832;2023-05-31T04:41:41;14.00;99.90
47310;DHT22;33046;52.270;6.832;2023-05-31T04:43:48;14.00;99.90
47310;DHT22;33046;52.270;6.832;2023-05-31T04:45:55;14.00;99.90
47310;DHT22;33046;52.270;6.832;2023-05-31T04:48:02;14.10;99.90
47310;DHT22;33046;52.270;6.832;2023-05-31T04:50:10;14.10;99.90
47310;DHT22;33046;52.270;6.832;2023-05-31T04:52:16;14.20;99.90
47310;DHT22;33046;52.270;6.832;2023-05-31T04:54:23;14.20;99.90
47310;DHT22;33046;52.270;6.832;2023-05-31T04:56:30;14.30;99.90
47310;DHT22;33046;52.270;6.832;2023-05-31T04:58:39;14.30;99.90
47310;DHT22;33046;52.270;6.832;2023-05-31T05:00:46;14.40;99.90
47310;DHT22;33046;52.270;6.832;2023-05-31T05:03:00;14.40;99.90
47310;DHT22;33046;52.270;6.832;2023-05-31T05:05:08;14.50;99.90
47310;DHT22;33046;52.270;6.832;2023-05-31T05:07:15;14.50;99.90
47310;DHT22;33046;52.270;6.832;2023-05-31T05:09:23;14.60;99.90
47310;DHT22;33046;52.270;6.832;2023-05-31T05:11:30;14.70;99.90
47310;DHT22;33046;52.270;6.832;2023-05-31T05:13:37;14.70;99.90
47310;DHT22;33046;52.270;6.832;2023-05-31T05:15:45;14.80;99.90
47310;DHT22;33046;52.270;6.832;2023-05-31T05:17:52;14.90;99.90
47310;DHT22;33046;52.270;6.832;2023-05-31T05:19:59;14.90;99.70
47310;DHT22;33046;52.270;6.832;2023-05-31T05:22:09;15.00;99.60
47310;DHT22;33046;52.270;6.832;2023-05-31T05:24:18;15.10;99.60
47310;DHT22;33046;52.270;6.832;2023-05-31T05:26:24;15.10;99.50
47310;DHT22;33046;52.270;6.832;2023-05-31T05:28:31;15.10;99.40
47310;DHT22;33046;52.270;6.832;2023-05-31T05:30:39;15.20;99.30
47310;DHT22;33046;52.270;6.832;2023-05-31T05:32:47;15.20;99.40
47310;DHT22;33046;52.270;6.832;2023-05-31T05:34:54;15.30;99.20
47310;DHT22;33046;52.270;6.832;2023-05-31T05:37:01;15.40;99.00
47310;DHT22;33046;52.270;6.832;2023-05-31T05:39:08;15.50;98.60
47310;DHT22;33046;52.270;6.832;2023-05-31T05:41:15;15.60;98.40
47310;DHT22;33046;52.270;6.832;2023-05-31T05:43:22;15.80;98.30
47310;DHT22;33046;52.270;6.832;2023-05-31T05:45:41;15.90;98.10
47310;DHT22;33046;52.270;6.832;2023-05-31T05:47:50;16.10;97.70
47310;DHT22;33046;52.270;6.832;2023-05-31T05:49:57;16.30;97.60
47310;DHT22;33046;52.270;6.832;2023-05-31T05:52:05;16.30;97.10
47310;DHT22;33046;52.270;6.832;2023-05-31T05:54:12;16.50;97.00
47310;DHT22;33046;52.270;6.832;2023-05-31T05:56:19;16.60;96.60
47310;DHT22;33046;52.270;6.832;2023-05-31T05:58:34;16.80;96.50
47310;DHT22;33046;52.270;6.832;2023-05-31T06:01:04;16.90;96.30
47310;DHT22;33046;52.270;6.832;2023-05-31T06:03:16;17.10;95.90
47310;DHT22;33046;52.270;6.832;2023-05-31T06:05:25;17.20;95.80
47310;DHT22;33046;52.270;6.832;2023-05-31T06:07:32;17.40;95.40
47310;DHT22;33046;52.270;6.832;2023-05-31T06:09:39;17.40;95.10
47310;DHT22;33046;52.270;6.832;2023-05-31T06:11:46;17.60;95.00
47310;DHT22;33046;52.270;6.832;2023-05-31T06:13:53;17.70;94.90
47310;DHT22;33046;52.270;6.832;2023-05-31T06:16:01;17.80;94.70
47310;DHT22;33046;52.270;6.832;2023-05-31T06:18:09;18.00;94.30
47310;DHT22;33046;52.270;6.832;2023-05-31T06:20:17;18.10;93.90
47310;DHT22;33046;52.270;6.832;2023-05-31T06:22:24;18.40;93.80
47310;DHT22;33046;52.270;6.832;2023-05-31T06:24:31;18.50;93.40
47310;DHT22;33046;52.270;6.832;2023-05-31T06:26:39;18.70;93.10
47310;DHT22;33046;52.270;6.832;2023-05-31T06:28:46;18.80;92.80
47310;DHT22;33046;52.270;6.832;2023-05-31T06:31:13;19.00;92.30
47310;DHT22;33046;52.270;6.832;2023-05-31T06:33:20;19.20;91.70
47310;DHT22;33046;52.270;6.832;2023-05-31T06:35:28;19.40;91.60
47310;DHT22;33046;52.270;6.832;2023-05-31T06:37:36;19.60;90.80
47310;DHT22;33046;52.270;6.832;2023-05-31T06:39:43;19.90;90.10
47310;DHT22;33046;52.270;6.832;2023-05-31T06:41:51;20.00;89.60
47310;DHT22;33046;52.270;6.832;2023-05-31T06:44:16;20.20;88.70
47310;DHT22;33046;52.270;6.832;2023-05-31T06:46:30;20.50;87.60
47310;DHT22;33046;52.270;6.832;2023-05-31T06:48:56;20.60;86.10
47310;DHT22;33046;52.270;6.832;2023-05-31T06:51:34;20.90;85.30
47310;DHT22;33046;52.270;6.832;2023-05-31T06:53:59;21.30;83.80
47310;DHT22;33046;52.270;6.832;2023-05-31T06:56:06;21.40;83.20
47310;DHT22;33046;52.270;6.832;2023-05-31T06:58:14;21.60;82.60
47310;DHT22;33046;52.270;6.832;2023-05-31T07:00:22;21.80;82.40
47310;DHT22;33046;52.270;6.832;2023-05-31T07:02:29;22.00;82.10
47310;DHT22;33046;52.270;6.832;2023-05-31T07:04:35;22.10;81.20
47310;DHT22;33046;52.270;6.832;2023-05-31T07:06:43;22.30;81.20
47310;DHT22;33046;52.270;6.832;2023-05-31T07:08:50;22.50;79.80
47310;DHT22;33046;52.270;6.832;2023-05-31T07:11:35;22.60;79.80
47310;DHT22;33046;52.270;6.832;2023-05-31T07:13:45;22.60;79.70
47310;DHT22;33046;52.270;6.832;2023-05-31T07:15:51;22.90;78.80
47310;DHT22;33046;52.270;6.832;2023-05-31T07:17:58;23.00;79.10
47310;DHT22;33046;52.270;6.832;2023-05-31T07:20:07;23.10;78.10
47310;DHT22;33046;52.270;6.832;2023-05-31T07:22:16;23.10;77.50
47310;DHT22;33046;52.270;6.832;2023-05-31T07:24:23;23.30;77.10
47310;DHT22;33046;52.270;6.832;2023-05-31T07:26:30;23.40;77.00
47310;DHT22;33046;52.270;6.832;2023-05-31T07:28:36;23.40;76.40
47310;DHT22;33046;52.270;6.832;2023-05-31T07:30:43;23.60;75.30
47310;DHT22;33046;52.270;6.832;2023-05-31T07:32:50;23.60;75.20
47310;DHT22;33046;52.270;6.832;2023-05-31T07:34:57;23.60;75.60
47310;DHT22;33046;52.270;6.832;2023-05-31T07:37:04;23.70;75.50
47310;DHT22;33046;52.270;6.832;2023-05-31T07:39:13;23.70;74.90
47310;DHT22;33046;52.270;6.832;2023-05-31T07:41:21;23.60;75.70
47310;DHT22;33046;52.270;6.832;2023-05-31T07:43:27;23.50;75.40
47310;DHT22;33046;52.270;6.832;2023-05-31T07:45:35;23.50;75.70
47310;DHT22;33046;52.270;6.832;2023-05-31T07:47:42;23.40;75.40
47310;DHT22;33046;52.270;6.832;2023-05-31T07:49:49;23.40;75.40
47310;DHT22;33046;52.270;6.832;2023-05-31T07:51:55;23.30;76.00
47310;DHT22;33046;52.270;6.832;2023-05-31T07:54:02;23.10;76.90
47310;DHT22;33046;52.270;6.832;2023-05-31T07:56:11;23.10;78.20
47310;DHT22;33046;52.270;6.832;2023-05-31T07:58:18;22.90;76.70
47310;DHT22;33046;52.270;6.832;2023-05-31T08:00:24;22.80;77.00
47310;DHT22;33046;52.270;6.832;2023-05-31T08:02:32;22.60;76.50
47310;DHT22;33046;52.270;6.832;2023-05-31T08:04:39;22.50;77.10
47310;DHT22;33046;52.270;6.832;2023-05-31T08:06:46;22.40;77.60
47310;DHT22;33046;52.270;6.832;2023-05-31T08:08:53;22.40;77.80
47310;DHT22;33046;52.270;6.832;2023-05-31T08:11:00;22.30;79.80
47310;DHT22;33046;52.270;6.832;2023-05-31T08:13:09;22.30;80.90
47310;DHT22;33046;52.270;6.832;2023-05-31T08:15:15;22.40;80.50
47310;DHT22;33046;52.270;6.832;2023-05-31T08:17:22;22.30;79.50
47310;DHT22;33046;52.270;6.832;2023-05-31T08:19:29;22.20;80.30
47310;DHT22;33046;52.270;6.832;2023-05-31T08:21:36;22.00;82.20
47310;DHT22;33046;52.270;6.832;2023-05-31T08:23:43;22.00;81.80
47310;DHT22;33046;52.270;6.832;2023-05-31T08:25:50;21.90;80.60
47310;DHT22;33046;52.270;6.832;2023-05-31T08:27:57;21.80;81.40
47310;DHT22;33046;52.270;6.832;2023-05-31T08:30:07;21.90;82.30
47310;DHT22;33046;52.270;6.832;2023-05-31T08:32:14;21.80;80.90
47310;DHT22;33046;52.270;6.832;2023-05-31T08:34:21;21.70;82.10
47310;DHT22;33046;52.270;6.832;2023-05-31T08:36:28;21.80;82.80
47310;DHT22;33046;52.270;6.832;2023-05-31T08:38:35;21.90;83.10
47310;DHT22;33046;52.270;6.832;2023-05-31T08:40:43;21.80;83.80
47310;DHT22;33046;52.270;6.832;2023-05-31T08:42:52;21.80;82.40
47310;DHT22;33046;52.270;6.832;2023-05-31T08:45:02;21.80;82.70
47310;DHT22;33046;52.270;6.832;2023-05-31T08:47:14;21.80;83.40
47310;DHT22;33046;52.270;6.832;2023-05-31T08:49:24;21.80;82.00
47310;DHT22;33046;52.270;6.832;2023-05-31T08:51:32;21.80;81.70
47310;DHT22;33046;52.270;6.832;2023-05-31T08:53:41;21.80;84.30
47310;DHT22;33046;52.270;6.832;2023-05-31T08:55:49;21.80;83.40
47310;DHT22;33046;52.270;6.832;2023-05-31T08:57:57;21.90;82.50
47310;DHT22;33046;52.270;6.832;2023-05-31T09:00:05;21.90;81.90
47310;DHT22;33046;52.270;6.832;2023-05-31T09:02:14;21.80;83.10
47310;DHT22;33046;52.270;6.832;2023-05-31T09:04:22;21.80;81.50
47310;DHT22;33046;52.270;6.832;2023-05-31T09:06:29;21.80;82.30
47310;DHT22;33046;52.270;6.832;2023-05-31T09:08:36;21.90;82.60
47310;DHT22;33046;52.270;6.832;2023-05-31T09:10:43;21.90;83.50
47310;DHT22;33046;52.270;6.832;2023-05-31T09:12:50;22.00;83.50
47310;DHT22;33046;52.270;6.832;2023-05-31T09:14:57;22.00;83.60
47310;DHT22;33046;52.270;6.832;2023-05-31T09:17:04;22.00;82.50
47310;DHT22;33046;52.270;6.832;2023-05-31T09:19:12;22.00;81.70
47310;DHT22;33046;52.270;6.832;2023-05-31T09:21:19;22.00;79.80
47310;DHT22;33046;52.270;6.832;2023-05-31T09:23:26;22.00;82.40
47310;DHT22;33046;52.270;6.832;2023-05-31T09:25:43;22.00;81.70
47310;DHT22;33046;52.270;6.832;2023-05-31T09:27:49;22.20;81.20
47310;DHT22;33046;52.270;6.832;2023-05-31T09:29:56;22.20;82.00
47310;DHT22;33046;52.270;6.832;2023-05-31T09:32:10;22.20;82.90
47310;DHT22;33046;52.270;6.832;2023-05-31T09:34:35;22.30;82.20
47310;DHT22;33046;52.270;6.832;2023-05-31T09:36:42;22.40;81.50
47310;DHT22;33046;52.270;6.832;2023-05-31T09:38:49;22.30;80.00
47310;DHT22;33046;52.270;6.832;2023-05-31T09:40:56;22.40;79.20
47310;DHT22;33046;52.270;6.832;2023-05-31T09:43:03;22.40;80.80
47310;DHT22;33046;52.270;6.832;2023-05-31T09:45:10;22.50;80.90
47310;DHT22;33046;52.270;6.832;2023-05-31T09:47:23;22.50;81.90
47310;DHT22;33046;52.270;6.832;2023-05-31T09:49:30;22.60;80.50
47310;DHT22;33046;52.270;6.832;2023-05-31T09:51:38;22.60;78.50
47310;DHT22;33046;52.270;6.832;2023-05-31T09:53:45;22.80;78.50
47310;DHT22;33046;52.270;6.832;2023-05-31T09:55:52;22.80;78.40
47310;DHT22;33046;52.270;6.832;2023-05-31T09:57:59;22.70;79.10
47310;DHT22;33046;52.270;6.832;2023-05-31T10:00:07;22.80;79.90
47310;DHT22;33046;52.270;6.832;2023-05-31T10:02:18;22.80;78.90
47310;DHT22;33046;52.270;6.832;2023-05-31T10:04:25;22.80;78.60
47310;DHT22;33046;52.270;6.832;2023-05-31T10:06:32;22.90;77.70
47310;DHT22;33046;52.270;6.832;2023-05-31T10:08:41;23.10;78.90
47310;DHT22;33046;52.270;6.832;2023-05-31T10:10:48;23.10;77.50
47310;DHT22;33046;52.270;6.832;2023-05-31T10:12:58;23.20;77.70
47310;DHT22;33046;52.270;6.832;2023-05-31T10:15:10;23.30;77.10
47310;DHT22;33046;52.270;6.832;2023-05-31T10:17:20;23.30;74.10
47310;DHT22;33046;52.270;6.832;2023-05-31T10:19:33;23.20;75.00
47310;DHT22;33046;52.270;6.832;2023-05-31T10:21:43;23.40;74.40
47310;DHT22;33046;52.270;6.832;2023-05-31T10:23:56;23.50;75.60
47310;DHT22;33046;52.270;6.832;2023-05-31T10:26:10;23.40;73.40
47310;DHT22;33046;52.270;6.832;2023-05-31T10:28:21;23.40;73.60
47310;DHT22;33046;52.270;6.832;2023-05-31T10:30:31;23.40;73.50
47310;DHT22;33046;52.270;6.832;2023-05-31T10:32:41;23.50;73.10
47310;DHT22;33046;52.270;6.832;2023-05-31T10:34:48;23.60;75.10
47310;DHT22;33046;52.270;6.832;2023-05-31T10:36:55;23.70;74.80
47310;DHT22;33046;52.270;6.832;2023-05-31T10:39:08;23.60;75.20
47310;DHT22;33046;52.270;6.832;2023-05-31T10:41:20;23.70;75.70
47310;DHT22;33046;52.270;6.832;2023-05-31T10:43:36;23.70;73.10
47310;DHT22;33046;52.270;6.832;2023-05-31T10:45:46;23.70;73.60
47310;DHT22;33046;52.270;6.832;2023-05-31T10:47:59;23.70;72.60
47310;DHT22;33046;52.270;6.832;2023-05-31T10:50:07;23.80;72.60
47310;DHT22;33046;52.270;6.832;2023-05-31T10:52:16;23.90;75.00
47310;DHT22;33046;52.270;6.832;2023-05-31T10:54:26;24.00;75.10
47310;DHT22;33046;52.270;6.832;2023-05-31T10:56:36;24.00;74.60
47310;DHT22;33046;52.270;6.832;2023-05-31T10:58:47;24.00;75.60
47310;DHT22;33046;52.270;6.832;2023-05-31T11:00:55;23.80;73.10
47310;DHT22;33046;52.270;6.832;2023-05-31T11:03:02;23.80;74.90
47310;DHT22;33046;52.270;6.832;2023-05-31T11:05:19;23.70;74.10
47310;DHT22;33046;52.270;6.832;2023-05-31T11:07:31;23.70;73.70
47310;DHT22;33046;52.270;6.832;2023-05-31T11:09:40;23.70;72.30
47310;DHT22;33046;52.270;6.832;2023-05-31T11:11:48;23.70;74.30
47310;DHT22;33046;52.270;6.832;2023-05-31T11:13:56;23.80;74.00
47310;DHT22;33046;52.270;6.832;2023-05-31T11:16:04;23.90;74.30
47310;DHT22;33046;52.270;6.832;2023-05-31T11:18:15;24.10;72.50
47310;DHT22;33046;52.270;6.832;2023-05-31T11:20:22;24.10;72.30
47310;DHT22;33046;52.270;6.832;2023-05-31T11:22:32;24.10;73.30
47310;DHT22;33046;52.270;6.832;2023-05-31T11:24:48;24.10;73.00
47310;DHT22;33046;52.270;6.832;2023-05-31T11:26:57;24.10;72.40
47310;DHT22;33046;52.270;6.832;2023-05-31T11:29:04;24.00;70.60
47310;DHT22;33046;52.270;6.832;2023-05-31T11:31:14;24.10;71.90
47310;DHT22;33046;52.270;6.832;2023-05-31T11:33:20;24.10;71.70
47310;DHT22;33046;52.270;6.832;2023-05-31T11:35:31;24.20;71.70
47310;DHT22;33046;52.270;6.832;2023-05-31T11:37:38;24.30;70.60
47310;DHT22;33046;52.270;6.832;2023-05-31T11:39:46;24.20;71.50
47310;DHT22;33046;52.270;6.832;2023-05-31T11:41:54;24.40;73.50
47310;DHT22;33046;52.270;6.832;2023-05-31T11:44:01;24.40;72.90
47310;DHT22;33046;52.270;6.832;2023-05-31T11:46:09;24.40;70.70
47310;DHT22;33046;52.270;6.832;2023-05-31T11:48:38;24.30;69.40
47310;DHT22;33046;52.270;6.832;2023-05-31T11:50:44;24.40;70.10
47310;DHT22;33046;52.270;6.832;2023-05-31T11:52:52;24.40;69.20
47310;DHT22;33046;52.270;6.832;2023-05-31T11:55:06;24.50;68.60
47310;DHT22;33046;52.270;6.832;2023-05-31T11:57:13;24.40;66.90
47310;DHT22;33046;52.270;6.832;2023-05-31T11:59:20;24.40;68.30
47310;DHT22;33046;52.270;6.832;2023-05-31T12:01:26;24.60;70.40
47310;DHT22;33046;52.270;6.832;2023-05-31T12:03:33;24.50;68.30
47310;DHT22;33046;52.270;6.832;2023-05-31T12:05:49;24.60;67.60
47310;DHT22;33046;52.270;6.832;2023-05-31T12:07:57;24.80;68.80
47310;DHT22;33046;52.270;6.832;2023-05-31T12:10:06;24.80;69.00
47310;DHT22;33046;52.270;6.832;2023-05-31T12:12:14;24.80;67.20
47310;DHT22;33046;52.270;6.832;2023-05-31T12:14:22;24.70;67.20
47310;DHT22;33046;52.270;6.832;2023-05-31T12:16:29;24.80;68.30
47310;DHT22;33046;52.270;6.832;2023-05-31T12:18:36;24.70;66.70
47310;DHT22;33046;52.270;6.832;2023-05-31T12:20:43;24.70;67.30
47310;DHT22;33046;52.270;6.832;2023-05-31T12:22:50;24.80;66.90
47310;DHT22;33046;52.270;6.832;2023-05-31T12:24:56;24.60;65.10
47310;DHT22;33046;52.270;6.832;2023-05-31T12:27:05;24.70;65.60
47310;DHT22;33046;52.270;6.832;2023-05-31T12:29:12;24.80;67.20
47310;DHT22;33046;52.270;6.832;2023-05-31T12:31:20;24.90;68.00
47310;DHT22;33046;52.270;6.832;2023-05-31T12:33:27;25.00;68.10
47310;DHT22;33046;52.270;6.832;2023-05-31T12:35:39;24.90;66.90
47310;DHT22;33046;52.270;6.832;2023-05-31T12:37:46;25.00;66.70
47310;DHT22;33046;52.270;6.832;2023-05-31T12:40:07;25.00;65.80
47310;DHT22;33046;52.270;6.832;2023-05-31T12:42:15;25.20;65.10
47310;DHT22;33046;52.270;6.832;2023-05-31T12:44:23;25.20;64.00
47310;DHT22;33046;52.270;6.832;2023-05-31T12:46:37;25.10;65.30
47310;DHT22;33046;52.270;6.832;2023-05-31T12:48:47;25.20;65.80
47310;DHT22;33046;52.270;6.832;2023-05-31T12:50:57;25.20;67.50
47310;DHT22;33046;52.270;6.832;2023-05-31T12:53:06;25.20;66.90
47310;DHT22;33046;52.270;6.832;2023-05-31T12:55:13;25.20;66.40
47310;DHT22;33046;52.270;6.832;2023-05-31T12:57:21;25.20;67.10
47310;DHT22;33046;52.270;6.832;2023-05-31T12:59:28;25.20;65.50
47310;DHT22;33046;52.270;6.832;2023-05-31T13:01:35;25.30;66.70
47310;DHT22;33046;52.270;6.832;2023-05-31T13:03:42;25.40;66.10
47310;DHT22;33046;52.270;6.832;2023-05-31T13:05:49;25.40;67.30
47310;DHT22;33046;52.270;6.832;2023-05-31T13:07:56;25.50;65.90
47310;DHT22;33046;52.270;6.832;2023-05-31T13:10:03;25.50;64.30
47310;DHT22;33046;52.270;6.832;2023-05-31T13:12:12;25.60;65.50
47310;DHT22;33046;52.270;6.832;2023-05-31T13:14:21;25.70;65.40
47310;DHT22;33046;52.270;6.832;2023-05-31T13:16:31;25.80;66.00
47310;DHT22;33046;52.270;6.832;2023-05-31T13:18:39;25.80;65.90
47310;DHT22;33046;52.270;6.832;2023-05-31T13:20:45;25.70;66.80
47310;DHT22;33046;52.270;6.832;2023-05-31T13:22:52;25.80;64.70
47310;DHT22;33046;52.270;6.832;2023-05-31T13:24:59;25.80;63.60
47310;DHT22;33046;52.270;6.832;2023-05-31T13:27:06;25.80;65.50
47310;DHT22;33046;52.270;6.832;2023-05-31T13:29:13;25.70;65.30
47310;DHT22;33046;52.270;6.832;2023-05-31T13:31:21;25.90;66.10
47310;DHT22;33046;52.270;6.832;2023-05-31T13:33:28;25.90;64.50